createdAt,value
2019-03-23T00:04:55.427Z,61.30
2019-03-23T00:09:58.717Z,64.20
2019-03-23T00:15:01.317Z,62.67
2019-03-23T00:20:04.401Z,62.40
2019-03-23T00:25:07.268Z,62.33
2019-03-23T00:30:10.193Z,64.73
2019-03-23T00:35:12.803Z,67.03
2019-03-23T00:40:16.303Z,62.90
2019-03-23T00:45:18.828Z,67.80
2019-03-23T00:50:21.201Z,68.13
2019-03-23T00:55:23.591Z,73.80
2019-03-23T01:00:25.988Z,75.13
2019-03-23T01:05:28.455Z,72.20
2019-03-23T01:10:30.939Z,73.03
2019-03-23T01:15:33.403Z,73.40
2019-03-23T01:20:35.786Z,72.20
2019-03-23T01:25:39.132Z,73.07
2019-03-23T01:30:41.555Z,74.87
2019-03-23T01:35:44.035Z,76.20
2019-03-23T01:40:46.532Z,76.27
2019-03-23T01:45:49.919Z,74.23
2019-03-23T01:51:14.535Z,77.23
2019-03-23T01:56:18.903Z,72.10
2019-03-23T02:01:21.255Z,76.83
2019-03-23T02:06:23.637Z,77.87
2019-03-23T02:11:26.009Z,81.17
2019-03-23T02:16:28.503Z,79.13
2019-03-23T02:21:30.970Z,75.97
2019-03-23T02:26:35.365Z,80.07
2019-03-23T02:31:37.991Z,80.03
2019-03-23T02:36:40.360Z,71.67
2019-03-23T02:41:42.738Z,71.80
2019-03-23T02:46:45.089Z,66.87
2019-03-23T02:51:47.464Z,74.07
2019-03-23T02:56:49.916Z,73.43
2019-03-23T03:01:52.261Z,63.07
2019-03-23T03:06:54.644Z,69.13
2019-03-23T03:11:57.030Z,67.90
2019-03-23T03:16:59.501Z,72.63
2019-03-23T03:22:02.093Z,72.87
2019-03-23T03:27:04.580Z,73.13
2019-03-23T03:32:07.180Z,71.13
2019-03-23T03:37:09.553Z,68.20
2019-03-23T03:42:12.040Z,68.43
2019-03-23T03:47:14.449Z,65.77
2019-03-23T03:52:16.848Z,68.47
2019-03-23T03:57:20.214Z,60.97
2019-03-23T04:02:22.617Z,74.93
2019-03-23T04:07:24.997Z,64.20
2019-03-23T04:12:27.604Z,60.40
2019-03-23T04:17:30.053Z,59.03
2019-03-23T04:22:32.506Z,57.93
2019-03-23T04:27:34.872Z,57.93
2019-03-23T04:32:37.332Z,54.53
2019-03-23T04:37:39.708Z,56.87
2019-03-23T04:42:42.267Z,57.93
2019-03-23T04:47:44.655Z,58.97
2019-03-23T04:52:47.037Z,62.53
2019-03-23T04:57:53.202Z,60.27
2019-03-23T05:02:55.622Z,56.07
2019-03-23T05:07:58.008Z,54.37
2019-03-23T05:13:00.784Z,58.43
2019-03-23T05:18:03.329Z,53.80
2019-03-23T05:23:05.796Z,55.07
2019-03-23T05:28:08.559Z,51.50
2019-03-23T05:33:11.015Z,54.47
2019-03-23T05:38:13.400Z,53.47
2019-03-23T05:43:15.773Z,54.13
2019-03-23T05:48:18.236Z,54.10
2019-03-23T05:53:20.829Z,47.53
2019-03-23T05:58:23.251Z,52.20
2019-03-23T06:03:25.603Z,45.60
2019-03-23T06:08:27.991Z,49.30
2019-03-23T06:13:30.353Z,46.00
2019-03-23T06:18:32.804Z,47.10
2019-03-23T06:23:35.166Z,46.67
2019-03-23T06:28:37.568Z,45.63
2019-03-23T06:33:39.912Z,47.23
2019-03-23T06:38:42.305Z,41.73
2019-03-23T06:43:44.671Z,45.07
2019-03-23T06:48:47.054Z,46.57
2019-03-23T06:53:49.538Z,46.80
2019-03-23T06:58:51.981Z,49.40
2019-03-23T07:03:54.337Z,46.53
2019-03-23T07:08:56.687Z,47.77
2019-03-23T07:13:59.055Z,49.50
2019-03-23T07:19:01.468Z,42.60
2019-03-23T07:24:04.023Z,49.13
2019-03-23T07:29:06.381Z,44.97
2019-03-23T07:34:08.757Z,49.40
2019-03-23T07:39:11.142Z,51.80
2019-03-23T07:44:13.520Z,48.20
2019-03-23T07:49:16.031Z,55.60
2019-03-23T07:54:18.387Z,51.97
2019-03-23T07:59:20.813Z,53.70
2019-03-23T08:04:23.167Z,52.87
2019-03-23T08:09:25.519Z,53.30
2019-03-23T08:14:27.882Z,47.77
2019-03-23T08:19:30.255Z,48.87
2019-03-23T08:24:32.584Z,52.40
2019-03-23T08:29:34.990Z,49.50
2019-03-23T08:34:37.328Z,45.27
2019-03-23T08:39:48.094Z,45.33
2019-03-23T08:44:44.008Z,48.50
2019-03-23T08:49:46.358Z,45.87
2019-03-23T08:54:48.740Z,40.17
2019-03-23T08:59:51.334Z,37.73
2019-03-23T09:17:15.810Z,39.03
2019-03-23T09:22:18.237Z,40.47
2019-03-23T09:27:20.583Z,30.90
2019-03-23T09:32:22.930Z,31.30
2019-03-23T09:37:25.316Z,34.13
2019-03-23T09:42:27.748Z,35.80
2019-03-23T09:47:30.137Z,37.40
2019-03-23T09:52:32.496Z,35.23
2019-03-23T09:57:36.058Z,36.37
2019-03-23T10:02:38.419Z,27.83
2019-03-23T10:07:40.758Z,31.17
2019-03-23T10:12:43.340Z,27.57
2019-03-23T10:17:45.759Z,30.07
2019-03-23T10:22:48.101Z,27.80
2019-03-23T10:27:51.556Z,25.13
2019-03-23T10:32:54.040Z,25.70
2019-03-23T10:37:56.400Z,28.30
2019-03-23T10:42:58.759Z,25.73
2019-03-23T10:48:01.163Z,28.67
2019-03-23T10:53:03.523Z,23.10
2019-03-23T10:58:05.887Z,28.40
2019-03-23T11:03:08.264Z,24.90
2019-03-23T11:08:10.611Z,26.40
2019-03-23T11:13:12.972Z,25.33
2019-03-23T11:18:15.637Z,29.70
2019-03-23T11:23:17.977Z,27.50
2019-03-23T11:28:20.315Z,29.43
2019-03-23T11:33:22.807Z,35.97
2019-03-23T11:38:25.158Z,35.33
2019-03-23T11:43:27.561Z,31.67
2019-03-23T11:48:29.934Z,34.83
2019-03-23T11:53:32.492Z,38.37
2019-03-23T11:58:34.865Z,46.37
2019-03-23T12:03:37.269Z,46.93
2019-03-23T12:08:39.711Z,58.93
2019-03-23T12:13:42.092Z,65.93
2019-03-23T12:18:44.428Z,64.87
2019-03-23T12:23:47.285Z,64.93
2019-03-23T12:28:49.775Z,72.53
2019-03-23T12:33:52.133Z,65.37
2019-03-23T12:38:54.493Z,68.97
2019-03-23T12:43:56.897Z,69.10
2019-03-23T12:48:59.278Z,71.67
2019-03-23T12:54:01.839Z,74.77
2019-03-23T12:59:04.203Z,81.03
2019-03-23T13:04:06.572Z,96.13
2019-03-23T13:09:08.939Z,81.83
2019-03-23T13:14:11.316Z,92.07
2019-03-23T13:19:14.011Z,95.30
2019-03-23T13:24:16.354Z,95.63
2019-03-23T13:29:18.727Z,100.07
2019-03-23T13:34:21.189Z,95.23
2019-03-23T13:39:24.573Z,77.83
2019-03-23T13:44:26.991Z,78.93
2019-03-23T13:49:29.474Z,79.40
2019-03-23T13:54:31.827Z,71.67
2019-03-23T13:59:34.216Z,67.87
2019-03-23T14:04:36.554Z,62.63
2019-03-23T14:09:38.910Z,67.30
2019-03-23T14:14:41.312Z,66.00
2019-03-23T14:19:43.695Z,64.10
2019-03-23T14:24:46.258Z,59.53
2019-03-23T14:29:48.850Z,67.80
2019-03-23T14:34:51.300Z,62.60
2019-03-23T14:39:53.658Z,73.93
2019-03-23T14:44:56.070Z,71.27
2019-03-23T14:49:58.464Z,72.57
2019-03-23T14:55:00.806Z,83.03
2019-03-23T15:00:04.821Z,79.27
2019-03-23T15:05:07.407Z,91.67
2019-03-23T15:10:10.305Z,79.97
2019-03-23T15:15:12.766Z,82.90
2019-03-23T15:20:15.198Z,79.83
2019-03-23T15:25:17.570Z,87.10
2019-03-23T15:30:20.420Z,75.60
2019-03-23T15:35:22.773Z,85.27
2019-03-23T15:40:25.122Z,84.67
2019-03-23T15:45:27.496Z,86.77
2019-03-23T15:50:29.883Z,79.20
2019-03-23T15:55:32.227Z,70.20
2019-03-23T16:00:34.707Z,77.53
2019-03-23T16:05:37.114Z,77.83
2019-03-23T16:10:39.471Z,70.23
2019-03-23T16:15:41.828Z,73.20
2019-03-23T16:20:44.319Z,63.40
2019-03-23T16:25:46.687Z,70.80
2019-03-23T16:30:49.241Z,70.77
2019-03-23T16:35:51.646Z,62.40
2019-03-23T16:40:54.054Z,67.00
2019-03-23T16:45:56.448Z,72.50
2019-03-23T16:50:58.829Z,76.87
2019-03-23T16:56:01.339Z,76.40
2019-03-23T17:01:03.767Z,77.57
2019-03-23T17:06:06.294Z,78.43
2019-03-23T17:11:08.672Z,76.73
2019-03-23T17:16:11.017Z,75.10
2019-03-23T17:21:13.415Z,79.33
2019-03-23T17:26:15.757Z,76.93
2019-03-23T17:31:18.126Z,75.33
2019-03-23T17:36:20.526Z,75.37
2019-03-23T17:41:22.932Z,75.90
2019-03-23T17:46:27.687Z,81.57
2019-03-23T17:51:29.676Z,75.40
2019-03-23T17:56:32.117Z,82.23
2019-03-23T18:01:34.479Z,75.23
2019-03-23T18:06:36.822Z,77.77
2019-03-23T18:11:39.317Z,78.47
2019-03-23T18:16:41.777Z,78.00
2019-03-23T18:21:44.125Z,77.00
2019-03-23T18:26:46.519Z,81.37
2019-03-23T18:31:49.016Z,80.33
2019-03-23T18:36:52.382Z,79.80
2019-03-23T18:41:54.877Z,83.87
2019-03-23T18:46:58.348Z,76.00
2019-03-23T18:52:00.715Z,78.37
2019-03-23T18:57:03.248Z,77.53
2019-03-23T19:02:05.628Z,76.90
2019-03-23T19:07:08.097Z,87.37
2019-03-23T19:12:10.615Z,85.53
2019-03-23T19:17:14.062Z,88.80
2019-03-23T19:22:16.416Z,97.43
2019-03-23T19:27:18.784Z,93.30
2019-03-23T19:32:21.288Z,89.13
2019-03-23T19:37:23.676Z,90.67
2019-03-23T19:42:26.064Z,89.40
2019-03-23T19:47:29.623Z,92.13
2019-03-23T19:52:33.560Z,92.50
2019-03-23T19:57:36.369Z,94.47
2019-03-23T20:02:38.793Z,97.40
2019-03-23T20:07:41.255Z,96.67
2019-03-23T20:12:43.751Z,96.17
2019-03-23T20:17:46.123Z,84.83
2019-03-23T20:22:48.473Z,86.67
2019-03-23T20:27:50.863Z,76.13
2019-03-23T20:32:54.340Z,75.77
2019-03-23T20:37:56.728Z,76.27
2019-03-23T20:42:59.103Z,79.87
2019-03-23T20:48:02.076Z,74.53
2019-03-23T20:53:04.967Z,76.07
2019-03-23T20:58:07.336Z,74.90
2019-03-23T21:03:09.704Z,74.73
2019-03-23T21:08:12.058Z,74.37
2019-03-23T21:13:14.627Z,75.83
2019-03-23T21:18:16.974Z,74.37
2019-03-23T21:23:19.370Z,75.23
2019-03-23T21:28:21.748Z,78.33
2019-03-23T21:33:24.124Z,77.83
2019-03-23T21:38:26.496Z,76.60
2019-03-23T21:43:28.905Z,83.90
2019-03-23T21:48:31.293Z,80.40
2019-03-23T21:53:33.666Z,75.80
2019-03-23T21:58:36.036Z,77.17
2019-03-23T22:03:38.407Z,79.50
2019-03-23T22:08:40.864Z,78.70
2019-03-23T22:13:43.271Z,77.67
2019-03-23T22:18:46.688Z,80.97
2019-03-23T22:23:49.088Z,76.63
2019-03-23T22:28:51.458Z,72.97
2019-03-23T22:33:54.393Z,82.53
2019-03-23T22:38:56.861Z,86.63
2019-03-23T22:43:59.400Z,80.03
2019-03-23T22:49:01.773Z,76.33
2019-03-23T22:54:04.141Z,82.93
2019-03-23T22:59:06.499Z,88.13
2019-03-23T23:04:08.923Z,84.70
2019-03-23T23:09:11.220Z,86.33
2019-03-23T23:14:13.706Z,83.47
2019-03-23T23:19:16.389Z,81.57
2019-03-23T23:24:18.747Z,77.87
2019-03-23T23:29:22.307Z,81.50
2019-03-23T23:34:24.768Z,78.90
2019-03-23T23:39:27.119Z,82.87
2019-03-23T23:44:29.736Z,80.97
2019-03-23T23:49:32.089Z,83.77
2019-03-23T23:54:34.445Z,87.33
2019-03-23T23:59:36.841Z,83.70
